»·PEaware :: AAL824 KSAN-KLAS

AAL824 :: KSAN-KLAS

FLIGHT INFORMATION

Flight Status: Arrived
Operator:
American Airlines
More flights by this operator :: More flights under this callsign
Pilot: Andrew S. (20703)
Aircraft: MCDONNELL-DOUGLAS MD-88
(MD88)
More flights by this aircraft type
Origin: KSAN San Diego Intl-Lindbergh
United States
Destination: KLAS McCarran Intl
United States
More flights between these airports :: More routes between these airports
Route: PADRZ2 CHKNN SEBBY/N0441F310 YELAH MISEN KEPEC6
File this flight plan on PilotEdge
Remarks: RMK / SIMBRIEF
Altitude:
(Current/Filed)
32,000ft
Speed:
(Current/Filed)
442kts
Departed: 16-Mar-20 08:39 PM
Arrived: 16-Mar-20 09:38 PM
Distance/Time
Traveled:
224nm/0:58
Distance/Time
To Go:
Arrived

Flight Plot

Page will automatically refresh every two minutes.

Flight plan parsing failed; only flown route is shown


Map Options




Map Legend


Flown Route
Filed Route
Departure Airport
Arrival Airport
Navaid (VOR, NDB)
Fix

Horizontal Profiles

Position Reports

Time Latitude Longitude Heading Altitude Ground
Speed
16-Mar-20 20:14 32.733922 -117.200407 259 23ft 0kts
16-Mar-20 20:15 32.733922 -117.200407 259 23ft 0kts
16-Mar-20 20:16 32.733922 -117.200407 259 23ft 0kts
16-Mar-20 20:17 32.733922 -117.200407 259 23ft 0kts
16-Mar-20 20:18 32.733922 -117.200407 259 23ft 0kts
16-Mar-20 20:19 32.733922 -117.200407 259 23ft 0kts
16-Mar-20 20:20 32.733922 -117.200407 259 23ft 0kts
16-Mar-20 20:21 32.733922 -117.200407 259 23ft 0kts
16-Mar-20 20:22 32.733922 -117.200407 259 23ft 0kts
16-Mar-20 20:23 32.733922 -117.200407 259 23ft 0kts
16-Mar-20 20:24 32.733922 -117.200407 259 23ft 0kts
16-Mar-20 20:25 32.733922 -117.200407 259 23ft 0kts
16-Mar-20 20:26 32.733922 -117.200407 259 23ft 0kts
16-Mar-20 20:26 32.733922 -117.200407 259 23ft 0kts
16-Mar-20 20:28 32.733924 -117.200388 259 23ft 1kts
16-Mar-20 20:29 32.733718 -117.199793 343 23ft 2kts
16-Mar-20 20:29 32.733483 -117.199795 13 23ft 0kts
16-Mar-20 20:30 32.733483 -117.199794 13 23ft 0kts
16-Mar-20 20:32 32.733483 -117.199794 13 23ft 0kts
16-Mar-20 20:32 32.733483 -117.199794 13 23ft 0kts
16-Mar-20 20:33 32.734229 -117.199581 15 23ft 11kts
16-Mar-20 20:34 32.733187 -117.192379 106 23ft 25kts
16-Mar-20 20:35 32.731340 -117.184802 105 23ft 26kts
16-Mar-20 20:36 32.729518 -117.177144 95 23ft 4kts
16-Mar-20 20:38 32.730452 -117.176845 284 23ft 0kts
16-Mar-20 20:38 32.731091 -117.179610 286 23ft 77kts
16-Mar-20 20:39 32.746444 -117.229040 299 1729ft 213kts
16-Mar-20 20:40 32.780577 -117.290686 304 3575ft 319kts
16-Mar-20 20:41 32.831319 -117.368346 303 6414ft 254kts
16-Mar-20 20:42 32.876187 -117.437431 302 9394ft 273kts
16-Mar-20 20:43 32.926179 -117.515026 302 11399ft 324kts
16-Mar-20 20:44 32.982400 -117.602961 302 14048ft 344kts
16-Mar-20 20:45 33.042034 -117.695916 301 16432ft 360kts
16-Mar-20 20:46 33.115524 -117.782950 313 18484ft 387kts
16-Mar-20 20:47 33.198985 -117.867181 312 20447ft 397kts
16-Mar-20 20:48 33.285143 -117.952259 313 22254ft 407kts
16-Mar-20 20:49 33.373965 -118.039142 313 23007ft 414kts
16-Mar-20 20:50 33.463543 -118.126621 313 23575ft 418kts
16-Mar-20 20:51 33.554617 -118.215484 313 25081ft 426kts
16-Mar-20 20:52 33.662966 -118.285074 328 26295ft 450kts
16-Mar-20 20:53 33.788478 -118.295142 23 27299ft 495kts
16-Mar-20 20:54 33.869115 -118.163983 68 28156ft 502kts
16-Mar-20 20:55 33.945608 -118.020833 55 28979ft 513kts
16-Mar-20 20:56 34.028995 -117.879544 55 29732ft 519kts
16-Mar-20 20:57 34.115481 -117.738726 50 30515ft 522kts
16-Mar-20 20:58 34.207640 -117.602466 50 31258ft 522kts
16-Mar-20 20:59 34.299754 -117.465327 50 31920ft 523kts
16-Mar-20 21:00 34.391517 -117.328892 51 31947ft 523kts
16-Mar-20 21:01 34.483775 -117.191956 51 31936ft 524kts
16-Mar-20 21:02 34.576365 -117.054746 50 31934ft 525kts
16-Mar-20 21:03 34.669560 -116.916873 50 31908ft 526kts
16-Mar-20 21:04 34.762900 -116.779030 50 31917ft 527kts
16-Mar-20 21:05 34.856824 -116.642821 43 30501ft 513kts
16-Mar-20 21:06 34.968111 -116.534140 38 27616ft 511kts
16-Mar-20 21:07 35.079179 -116.426208 41 24559ft 504kts
16-Mar-20 21:08 35.174757 -116.313614 50 23340ft 451kts
16-Mar-20 21:09 35.259368 -116.205930 50 21534ft 428kts
16-Mar-20 21:10 35.340551 -116.103114 50 19824ft 405kts
16-Mar-20 21:11 35.417087 -116.006294 50 18229ft 384kts
16-Mar-20 21:12 35.489803 -115.914398 51 16729ft 365kts
16-Mar-20 21:13 35.559071 -115.826937 51 15310ft 346kts
16-Mar-20 21:14 35.621260 -115.748481 51 14048ft 330kts
16-Mar-20 21:16 35.694284 -115.656063 51 12980ft 312kts
16-Mar-20 21:16 35.745538 -115.590677 47 12978ft 320kts
16-Mar-20 21:17 35.833348 -115.569475 1 13041ft 338kts
16-Mar-20 21:18 35.927790 -115.565839 4 13004ft 338kts
16-Mar-20 21:19 35.996256 -115.511568 84 12659ft 287kts
16-Mar-20 21:20 36.015335 -115.429934 76 11657ft 278kts
16-Mar-20 21:21 36.030746 -115.340404 103 10628ft 257kts
16-Mar-20 21:22 36.022565 -115.252184 101 9592ft 258kts
16-Mar-20 21:23 36.016570 -115.171331 100 8753ft 246kts
16-Mar-20 21:24 36.010959 -115.089665 100 8062ft 234kts
16-Mar-20 21:25 36.005927 -115.008474 100 8008ft 240kts
16-Mar-20 21:27 36.000063 -114.910521 100 8007ft 245kts
16-Mar-20 21:27 35.995914 -114.840368 100 8007ft 245kts
16-Mar-20 21:28 35.996232 -114.763410 58 8047ft 213kts
16-Mar-20 21:29 36.050355 -114.739864 346 8051ft 214kts
16-Mar-20 21:30 36.079319 -114.782302 252 7750ft 181kts
16-Mar-20 21:31 36.074333 -114.844401 261 6769ft 180kts
16-Mar-20 21:32 36.073551 -114.905749 263 5779ft 178kts
16-Mar-20 21:33 36.073565 -114.966501 264 4792ft 175kts
16-Mar-20 21:34 36.073636 -115.026572 264 3842ft 166kts
16-Mar-20 21:35 36.073655 -115.080493 264 2943ft 150kts
16-Mar-20 21:36 36.073579 -115.129192 266 2203ft 136kts
16-Mar-20 21:37 36.074551 -115.150193 299 2187ft 25kts
16-Mar-20 21:38 36.075039 -115.151113 309 2187ft 0kts

Navigation Log

Ident Type
Flight plan parsing failed, navigation log unavailable